Time;durP1;ratioP1;P1;durP2;ratioP2;P2;SDS_P1;SDS_P2;PMS_P1;PMS_P2;Temp;Humidity;BMP_temperature;BMP_pressure;BME280_temperature;BME280_humidity;BME280_pressure;Samples;Min_cycle;Max_cycle;Signal;HPM_P1;HPM_P2
2022/08/11 00:02:35;;;;;;;7.40;4.35;;;;;;;19.40;98.08;101846.72;5049362;28;20041;-79
2022/08/11 00:05:08;;;;;;;5.68;3.90;;;;;;;19.31;98.72;101846.78;5077421;28;20034;-78
2022/08/11 00:07:42;;;;;;;10.10;4.68;;;;;;;19.23;98.74;101839.19;5054177;28;20028;-79
2022/08/11 00:10:14;;;;;;;13.57;4.35;;;;;;;19.24;99.74;101849.28;5097309;28;20792;-77
2022/08/11 00:12:42;;;;;;;5.33;3.77;;;;;;;19.21;99.09;101847.69;5079689;28;20245;-78
2022/08/11 00:15:09;;;;;;;11.23;4.57;;;;;;;19.23;98.62;101851.22;5072770;28;20028;-78
2022/08/11 00:17:35;;;;;;;12.85;4.20;;;;;;;19.14;99.51;101845.69;5085051;28;20055;-80
2022/08/11 00:20:07;;;;;;;10.75;4.30;;;;;;;19.17;100.00;101860.16;5102851;28;20036;-79
2022/08/11 00:22:35;;;;;;;14.15;4.07;;;;;;;19.10;100.00;101854.34;5102713;28;20062;-80
2022/08/11 00:25:14;;;;;;;7.57;4.30;;;;;;;19.13;100.00;101863.38;5078599;28;20478;-78
2022/08/11 00:27:40;;;;;;;11.02;4.10;;;;;;;19.14;97.99;101849.34;5083386;28;20073;-79
2022/08/11 00:30:09;;;;;;;6.40;3.97;;;;;;;19.09;99.13;101852.56;5084961;28;20082;-79
2022/08/11 00:32:37;;;;;;;11.75;4.00;;;;;;;19.17;98.68;101850.91;5067577;28;20058;-79
2022/08/11 00:35:06;;;;;;;15.32;4.50;;;;;;;19.06;100.00;101849.22;5086548;28;20108;-79
2022/08/11 00:37:33;;;;;;;10.35;4.30;;;;;;;19.01;100.00;101848.81;5100572;28;20077;-78
2022/08/11 00:40:01;;;;;;;8.45;4.05;;;;;;;18.95;100.00;101841.97;5081027;28;20048;-78
2022/08/11 00:42:44;;;;;;;11.95;4.00;;;;;;;18.95;100.00;101841.09;5083088;28;20103;-79
2022/08/11 00:45:53;;;;;;;9.27;4.18;;;;;;;18.94;100.00;101848.56;5048529;28;20051;-79
2022/08/11 00:48:33;;;;;;;8.73;4.10;;;;;;;18.84;100.00;101847.69;5052317;28;20123;-79
2022/08/11 00:51:21;;;;;;;11.45;4.38;;;;;;;18.86;100.00;101846.53;5065200;28;20574;-78
2022/08/11 00:54:11;;;;;;;8.02;3.95;;;;;;;18.73;100.00;101849.59;5076494;28;20036;-78
2022/08/11 00:56:54;;;;;;;8.50;4.22;;;;;;;18.80;100.00;101855.41;5065457;28;20031;-78
2022/08/11 00:59:48;;;;;;;9.07;3.75;;;;;;;18.79;100.00;101858.34;5096587;28;20709;-79
2022/08/11 01:02:51;;;;;;;10.43;4.15;;;;;;;18.71;100.00;101862.75;5099088;28;20121;-79
2022/08/11 01:05:22;;;;;;;23.08;4.40;;;;;;;18.68;100.00;101856.66;5063565;28;20028;-79
2022/08/11 01:08:20;;;;;;;10.32;4.40;;;;;;;18.64;100.00;101857.94;5077375;28;20032;-79
2022/08/11 01:11:11;;;;;;;10.80;4.45;;;;;;;18.54;100.00;101842.22;5010124;28;20162;-79
2022/08/11 01:13:54;;;;;;;10.27;4.40;;;;;;;18.47;100.00;101843.81;5096815;28;20032;-78
2022/08/11 01:16:49;;;;;;;10.52;4.20;;;;;;;18.51;100.00;101848.06;5062126;28;20040;-80
2022/08/11 01:19:51;;;;;;;9.20;4.53;;;;;;;18.47;100.00;101849.38;5051645;28;20037;-79
2022/08/11 01:22:47;;;;;;;7.70;3.87;;;;;;;18.49;100.00;101852.00;5082133;28;20024;-80
2022/08/11 01:25:31;;;;;;;5.95;4.30;;;;;;;18.40;100.00;101844.56;5066440;28;20073;-79
2022/08/11 01:28:46;;;;;;;7.90;4.00;;;;;;;18.30;100.00;101851.03;5078883;28;20032;-78
2022/08/11 01:31:33;;;;;;;6.95;4.70;;;;;;;18.29;100.00;101856.72;5045882;28;20067;-80
2022/08/11 01:34:36;;;;;;;7.82;4.93;;;;;;;18.35;100.00;101865.31;5059512;28;20036;-78
2022/08/11 01:37:12;;;;;;;13.05;4.65;;;;;;;18.23;100.00;101857.28;5095500;28;20073;-80
2022/08/11 01:40:11;;;;;;;7.60;4.15;;;;;;;18.14;100.00;101857.16;5066776;28;20135;-78
2022/08/11 01:45:56;;;;;;;10.45;4.38;;;;;;;18.09;100.00;101858.63;5080273;28;20032;-79
2022/08/11 01:48:43;;;;;;;8.38;5.00;;;;;;;18.00;100.00;101857.59;5058811;28;20028;-78
2022/08/11 01:51:50;;;;;;;6.75;4.50;;;;;;;18.19;100.00;101862.25;5096803;28;20410;-79
2022/08/11 01:54:36;;;;;;;8.77;4.85;;;;;;;18.10;100.00;101852.94;5082758;28;20048;-79
2022/08/11 01:57:19;;;;;;;9.98;4.97;;;;;;;18.01;100.00;101864.88;5098923;28;20079;-79
2022/08/11 02:00:15;;;;;;;9.75;5.30;;;;;;;17.94;100.00;101870.13;5086179;28;20531;-79
2022/08/11 02:02:46;;;;;;;14.88;4.80;;;;;;;17.97;100.00;101867.09;5082093;28;20449;-79
2022/08/11 02:05:31;;;;;;;10.23;4.72;;;;;;;17.90;100.00;101867.78;5055875;28;20438;-79
2022/08/11 02:08:09;;;;;;;9.73;4.55;;;;;;;17.93;100.00;101862.84;5062648;28;20037;-79
2022/08/11 02:13:46;;;;;;;;;;;;;;;17.81;100.00;101863.97;5081234;28;20040;-77
2022/08/11 02:16:17;;;;;;;7.93;4.32;;;;;;;17.90;100.00;101859.47;5081556;28;20417;-78
2022/08/11 02:24:59;;;;;;;8.73;5.15;;;;;;;17.66;100.00;101855.22;5092175;28;20031;-78
2022/08/11 02:27:44;;;;;;;8.27;4.95;;;;;;;17.71;100.00;101855.66;5055184;28;20060;-79
2022/08/11 02:30:14;;;;;;;8.93;4.82;;;;;;;17.63;100.00;101852.72;5079127;28;20039;-79
2022/08/11 02:35:44;;;;;;;;;;;;;;;17.62;100.00;101868.44;5083551;28;20032;-79
2022/08/11 02:38:42;;;;;;;12.60;5.38;;;;;;;17.57;100.00;101861.59;5100422;28;19915;-79
2022/08/11 02:44:32;;;;;;;11.95;5.38;;;;;;;17.47;100.00;101857.94;5098897;28;20035;-78
2022/08/11 02:47:30;;;;;;;11.75;5.60;;;;;;;17.35;100.00;101855.28;5097540;28;20489;-78
2022/08/11 02:50:02;;;;;;;12.20;5.75;;;;;;;17.55;100.00;101858.97;5080026;28;20037;-78
2022/08/11 02:52:35;;;;;;;14.50;6.28;;;;;;;17.50;100.00;101858.53;5100826;28;20035;-79
2022/08/11 02:55:40;;;;;;;10.30;5.85;;;;;;;17.39;100.00;101848.44;5081721;28;20443;-78
2022/08/11 02:58:43;;;;;;;11.18;6.25;;;;;;;17.36;100.00;101857.00;5095146;28;20036;-79
2022/08/11 03:01:16;;;;;;;8.60;5.63;;;;;;;17.34;100.00;101856.28;5078539;28;20032;-79
2022/08/11 03:04:06;;;;;;;11.95;5.75;;;;;;;17.31;100.00;101853.78;5080790;28;20055;-80
2022/08/11 03:06:47;;;;;;;15.85;5.97;;;;;;;17.31;100.00;101848.25;5064022;28;20063;-79
2022/08/11 03:09:23;;;;;;;9.05;5.70;;;;;;;17.35;100.00;101843.31;5084968;28;20034;-79
2022/08/11 03:18:16;;;;;;;14.60;7.13;;;;;;;17.02;100.00;101854.59;5099700;28;20042;-78
2022/08/11 03:20:50;;;;;;;17.00;6.32;;;;;;;17.09;100.00;101846.59;5073205;28;20473;-81
2022/08/11 03:23:34;;;;;;;11.73;6.32;;;;;;;17.02;100.00;101851.81;5103642;28;20036;-79
2022/08/11 03:26:05;;;;;;;20.52;6.32;;;;;;;16.99;100.00;101851.22;5076715;28;20476;-77
2022/08/11 03:28:39;;;;;;;15.17;6.47;;;;;;;16.95;100.00;101845.06;5098179;28;20039;-80
2022/08/11 03:31:23;;;;;;;11.77;6.22;;;;;;;17.07;100.00;101859.72;5102213;28;20749;-79
2022/08/11 03:34:03;;;;;;;11.80;6.25;;;;;;;16.96;100.00;101851.50;5094783;28;20476;-79
2022/08/11 03:36:42;;;;;;;16.60;6.55;;;;;;;16.99;100.00;101854.84;5067578;28;20032;-80
2022/08/11 03:39:49;;;;;;;18.05;6.57;;;;;;;16.91;100.00;101843.59;5084033;28;20043;-80
2022/08/11 03:42:30;;;;;;;15.05;6.80;;;;;;;16.86;100.00;101851.47;5071298;28;20063;-79
2022/08/11 03:45:16;;;;;;;15.30;6.35;;;;;;;16.95;100.00;101856.13;5070963;28;20480;-79
2022/08/11 03:47:59;;;;;;;15.00;6.88;;;;;;;16.81;100.00;101854.59;5084114;28;20036;-79
2022/08/11 03:50:46;;;;;;;13.07;6.70;;;;;;;16.79;100.00;101856.63;5076345;28;20028;-78
2022/08/11 03:53:44;;;;;;;16.00;7.00;;;;;;;16.80;100.00;101860.25;5079474;28;20032;-79
2022/08/11 03:56:17;;;;;;;22.05;6.85;;;;;;;16.69;100.00;101856.56;5084177;28;20036;-79
2022/08/11 03:59:11;;;;;;;13.65;6.45;;;;;;;16.68;100.00;101854.81;5082895;28;20078;-79
2022/08/11 04:02:01;;;;;;;13.27;6.95;;;;;;;16.62;100.00;101849.81;5076418;28;20097;-79
2022/08/11 04:04:58;;;;;;;11.43;6.57;;;;;;;16.68;100.00;101854.81;5075974;28;20036;-78
2022/08/11 04:11:27;;;;;;;18.38;7.30;;;;;;;16.63;100.00;101848.81;5100453;28;20103;-78
2022/08/11 04:17:39;;;;;;;15.63;6.75;;;;;;;16.65;100.00;101838.50;5102046;28;20024;-80
2022/08/11 04:20:27;;;;;;;18.15;6.68;;;;;;;16.66;100.00;101845.78;5105807;28;20109;-80
2022/08/11 04:23:22;;;;;;;15.80;6.85;;;;;;;16.58;100.00;101839.16;5083246;28;20032;-79
2022/08/11 04:26:10;;;;;;;18.90;6.65;;;;;;;16.63;100.00;101836.91;5087386;28;20039;-79
2022/08/11 04:29:02;;;;;;;11.70;6.53;;;;;;;16.41;100.00;101830.47;5083926;28;20028;-80
2022/08/11 04:32:09;;;;;;;18.83;6.93;;;;;;;16.52;100.00;101848.91;5103604;28;20087;-81
2022/08/11 04:35:10;;;;;;;18.02;7.32;;;;;;;16.43;100.00;101839.53;5103342;28;20036;-78
2022/08/11 04:38:07;;;;;;;16.85;7.38;;;;;;;16.52;100.00;101841.47;5040009;28;20130;-78
2022/08/11 04:40:49;;;;;;;11.77;7.10;;;;;;;16.57;100.00;101840.19;5104197;28;20092;-78
2022/08/11 04:43:46;;;;;;;19.15;7.43;;;;;;;16.45;100.00;101844.94;5083114;28;20131;-79
2022/08/11 04:46:40;;;;;;;16.45;8.40;;;;;;;16.45;100.00;101844.94;5103240;28;20027;-78
2022/08/11 05:02:19;;;;;;;10.23;6.88;;;;;;;16.71;100.00;101851.78;5082873;28;20062;-79
2022/08/11 05:08:26;;;;;;;17.95;8.70;;;;;;;16.55;100.00;101862.44;5095389;28;20024;-80
2022/08/11 05:11:16;;;;;;;23.65;8.13;;;;;;;16.65;100.00;101856.97;5103919;28;20032;-79
2022/08/11 05:37:09;;;;;;;15.60;9.48;;;;;;;17.59;100.00;101856.78;5081291;28;20051;-78
2022/08/11 05:56:48;;;;;;;17.75;10.10;;;;;;;19.09;100.00;101873.91;5106993;28;20035;-79
2022/08/11 05:59:16;;;;;;;16.92;9.48;;;;;;;19.24;100.00;101869.59;5081955;28;20074;-79
2022/08/11 06:01:43;;;;;;;20.35;10.25;;;;;;;19.21;100.00;101866.25;5080060;28;20475;-82
2022/08/11 06:04:20;;;;;;;24.42;9.73;;;;;;;19.79;100.00;101859.50;5074276;28;20479;-78
2022/08/11 06:07:01;;;;;;;18.52;10.00;;;;;;;19.82;100.00;101867.53;5083749;28;20046;-79
2022/08/11 06:09:33;;;;;;;16.23;9.50;;;;;;;19.85;100.00;101869.13;5089361;28;20106;-78
2022/08/11 06:12:05;;;;;;;21.42;9.75;;;;;;;20.21;98.12;101867.22;5059944;28;20060;-78
2022/08/11 06:14:32;;;;;;;19.27;10.02;;;;;;;20.02;100.00;101863.56;5071348;28;20082;-79
2022/08/11 06:17:05;;;;;;;25.27;10.80;;;;;;;20.51;98.47;101863.13;5058271;28;20039;-79
2022/08/11 06:19:37;;;;;;;;;;;;;;;20.44;98.77;101863.94;5087769;28;20035;-78
2022/08/11 06:22:05;;;;;;;22.45;11.15;;;;;;;20.70;96.18;101862.06;5060322;28;20037;-78
2022/08/11 06:24:32;;;;;;;18.80;10.02;;;;;;;21.23;92.55;101862.88;5077462;28;20087;-78
2022/08/11 06:26:59;;;;;;;26.33;11.38;;;;;;;20.94;95.01;101860.50;5095188;28;20403;-79
2022/08/11 06:29:27;;;;;;;24.48;11.32;;;;;;;21.02;93.74;101863.31;5075896;28;20060;-79
2022/08/11 06:31:56;;;;;;;25.00;11.35;;;;;;;21.49;91.37;101861.97;5075926;28;20071;-79
2022/08/11 06:34:39;;;;;;;28.23;11.75;;;;;;;21.57;91.74;101869.50;5060622;28;20029;-79
2022/08/11 06:37:05;;;;;;;28.35;11.02;;;;;;;21.62;93.14;101867.94;5093522;28;20489;-78
2022/08/11 06:40:07;;;;;;;22.35;10.77;;;;;;;21.93;90.12;101866.47;5095918;28;20035;-78
2022/08/11 06:42:45;;;;;;;24.15;10.50;;;;;;;22.36;86.03;101868.06;5067921;28;20040;-80
2022/08/11 06:45:51;;;;;;;29.60;10.18;;;;;;;22.65;83.49;101874.19;5078807;28;20032;-81
2022/08/11 06:48:20;;;;;;;18.27;8.48;;;;;;;23.46;78.17;101864.72;4998632;28;20041;-83
2022/08/11 06:53:35;;;;;;;32.03;9.70;;;;;;;23.79;72.73;101870.16;5097351;28;20036;-83
2022/08/11 07:01:46;;;;;;;24.88;9.65;;;;;;;24.27;70.93;101877.50;5105764;28;20073;-81
2022/08/11 07:04:22;;;;;;;22.60;9.77;;;;;;;24.53;67.96;101875.22;5108552;28;20035;-80
2022/08/11 07:15:40;;;;;;;23.45;9.95;;;;;;;24.66;66.71;101871.81;5106982;28;20080;-81
2022/08/11 07:15:41;;;;;;;20.67;9.25;;;;;;;25.11;66.32;101869.03;5069810;28;20043;-83
2022/08/11 07:30:25;;;;;;;30.05;8.95;;;;;;;25.78;63.28;101873.63;5097255;28;20062;-81
2022/08/11 07:32:53;;;;;;;23.17;9.23;;;;;;;26.29;63.70;101877.44;5080712;28;20042;-82
2022/08/11 07:35:48;;;;;;;20.23;9.63;;;;;;;26.03;62.90;101885.38;5097780;28;20032;-81
2022/08/11 07:38:20;;;;;;;23.58;9.75;;;;;;;26.21;62.09;101879.31;5079071;28;20038;-83
2022/08/11 07:40:46;;;;;;;18.42;8.82;;;;;;;26.94;58.63;101878.22;5065570;28;20085;-84
2022/08/11 07:43:13;;;;;;;29.80;10.15;;;;;;;26.53;61.13;101885.44;5078993;28;20044;-81
2022/08/11 07:54:04;;;;;;;27.23;9.38;;;;;;;27.07;56.19;101874.63;5082086;28;20039;-81
2022/08/11 07:56:35;;;;;;;23.58;9.68;;;;;;;27.30;56.05;101880.00;5046831;28;20119;-82
2022/08/11 08:18:22;;;;;;;22.95;7.47;;;;;;;28.33;51.76;101885.56;5069026;28;20029;-82
2022/08/11 08:20:49;;;;;;;21.17;8.30;;;;;;;28.93;48.47;101873.47;5065436;28;20418;-81
2022/08/11 08:23:16;;;;;;;21.70;7.28;;;;;;;29.66;47.04;101875.22;5064402;28;21284;-81
2022/08/11 08:25:44;;;;;;;40.22;7.90;;;;;;;28.70;50.50;101871.13;5065741;28;20040;-83
2022/08/11 08:28:18;;;;;;;21.20;8.02;;;;;;;28.94;49.95;101876.09;5081473;28;20028;-84
2022/08/11 08:30:47;;;;;;;23.33;6.65;;;;;;;29.07;49.94;101875.19;5080392;28;20028;-83
2022/08/11 08:33:30;;;;;;;22.98;6.95;;;;;;;29.17;48.34;101876.66;5065134;28;20082;-82
2022/08/11 08:36:14;;;;;;;19.98;6.80;;;;;;;29.39;47.70;101882.94;5099597;28;20060;-82
2022/08/11 08:38:52;;;;;;;20.58;6.65;;;;;;;29.78;46.59;101876.31;5081000;28;20016;-82
2022/08/11 08:41:26;;;;;;;24.83;6.47;;;;;;;30.00;45.35;101875.97;5100212;28;20444;-82
2022/08/11 08:44:01;;;;;;;16.30;6.70;;;;;;;29.67;44.26;101877.84;5076889;28;20032;-82
2022/08/11 08:46:35;;;;;;;22.17;7.32;;;;;;;29.79;46.21;101877.16;5057479;28;20081;-82
2022/08/11 08:49:02;;;;;;;22.92;7.32;;;;;;;29.81;45.64;101873.03;5071924;28;20058;-82
2022/08/11 08:51:34;;;;;;;25.30;7.38;;;;;;;30.51;43.12;101880.63;5080879;28;20035;-81
2022/08/11 08:54:05;;;;;;;33.22;6.78;;;;;;;29.09;46.23;101861.72;5100403;28;20030;-83
2022/08/11 08:56:33;;;;;;;21.83;7.00;;;;;;;29.86;45.55;101875.16;5083701;28;20035;-82
2022/08/11 08:59:01;;;;;;;21.90;6.25;;;;;;;30.06;44.87;101872.25;5085111;28;20035;-81
2022/08/11 09:01:40;;;;;;;16.75;5.93;;;;;;;30.06;42.89;101875.06;5085007;28;20039;-82
2022/08/11 09:04:09;;;;;;;18.80;6.68;;;;;;;29.96;44.69;101869.03;5085381;28;20038;-81
2022/08/11 09:06:41;;;;;;;25.85;7.35;;;;;;;30.03;44.33;101867.03;5068851;28;20092;-82
2022/08/11 09:09:08;;;;;;;38.00;6.38;;;;;;;30.47;44.52;101875.66;5081157;28;20515;-81
2022/08/11 09:11:54;;;;;;;21.17;5.88;;;;;;;31.48;40.87;101865.97;5099059;28;20091;-82
2022/08/11 09:14:59;;;;;;;15.32;5.72;;;;;;;30.57;43.76;101874.06;5064641;28;20067;-83
2022/08/11 09:17:11;;;;;;;18.85;5.75;;;;;;;30.36;42.91;101865.94;5080263;28;20032;-81
2022/08/11 09:19:37;;;;;;;23.92;5.82;;;;;;;30.68;40.79;101877.22;5064506;28;20126;-83
2022/08/11 09:27:39;;;;;;;19.80;5.43;;;;;;;30.85;41.51;101860.56;5083155;28;20036;-82
2022/08/11 09:30:10;;;;;;;17.33;5.18;;;;;;;30.81;39.89;101870.59;5080573;28;20032;-82
2022/08/11 09:32:38;;;;;;;26.33;6.68;;;;;;;31.75;39.52;101859.97;5097503;28;20079;-82
2022/08/11 09:35:04;;;;;;;18.35;5.82;;;;;;;30.86;41.77;101854.66;5080306;28;20061;-81
2022/08/11 09:40:28;;;;;;;15.43;4.93;;;;;;;31.06;39.18;101860.13;5078832;28;20040;-82
2022/08/11 09:45:45;;;;;;;12.52;5.22;;;;;;;31.29;40.38;101852.94;5076061;28;20055;-81
2022/08/11 09:48:11;;;;;;;16.25;5.15;;;;;;;31.46;38.51;101853.13;5056881;28;20047;-82
2022/08/11 09:50:39;;;;;;;14.27;5.45;;;;;;;31.55;39.15;101857.41;5057258;28;20125;-82
2022/08/11 09:53:05;;;;;;;21.35;5.72;;;;;;;31.49;40.36;101858.34;5055641;28;20029;-82
2022/08/11 09:55:32;;;;;;;9.85;4.40;;;;;;;31.92;37.77;101853.66;5058376;28;20060;-82
2022/08/11 09:58:17;;;;;;;17.65;5.07;;;;;;;31.47;37.81;101846.38;5075810;28;20025;-82
2022/08/11 10:00:47;;;;;;;19.23;4.65;;;;;;;31.97;38.17;101843.31;5076384;28;20040;-82
2022/08/11 10:03:17;;;;;;;14.25;4.93;;;;;;;31.74;37.17;101849.75;5057030;28;20480;-82
2022/08/11 10:08:32;;;;;;;19.65;4.45;;;;;;;31.57;38.40;101843.88;5059653;28;20029;-82
2022/08/11 10:10:58;;;;;;;10.20;4.45;;;;;;;31.96;35.91;101846.38;5055504;28;20530;-83
2022/08/11 10:15:32;;;;;;;15.02;4.25;;;;;;;31.52;37.94;101824.78;5057537;28;20437;-82
2022/08/11 10:16:25;;;;;;;21.30;4.85;;;;;;;31.81;35.74;101832.66;5062682;28;20020;-81
2022/08/11 10:18:53;;;;;;;18.95;4.65;;;;;;;31.94;36.53;101826.78;5077617;28;20384;-82
2022/08/11 10:21:27;;;;;;;15.02;4.53;;;;;;;32.15;35.39;101830.22;5075561;28;20060;-82
2022/08/11 10:34:47;;;;;;;12.75;4.55;;;;;;;32.24;34.04;101823.09;5062438;28;20612;-82
2022/08/11 10:37:14;;;;;;;12.18;4.00;;;;;;;31.71;33.11;101819.06;5076734;28;20498;-83
2022/08/11 10:39:44;;;;;;;8.50;3.88;;;;;;;32.66;32.75;101816.50;5076241;28;20039;-84
2022/08/11 10:44:57;;;;;;;10.57;3.50;;;;;;;32.67;33.42;101813.44;5076243;28;20097;-82
2022/08/11 10:47:33;;;;;;;17.42;3.40;;;;;;;32.47;31.97;101822.28;5059185;28;20047;-82
2022/08/11 10:58:48;;;;;;;13.85;3.90;;;;;;;32.35;32.25;101807.22;5075225;28;20036;-81
2022/08/11 11:01:14;;;;;;;;;;;;;;;32.20;30.29;101802.00;5076089;28;20033;-81
2022/08/11 11:03:42;;;;;;;9.32;3.67;;;;;;;32.12;30.26;101802.34;5074941;28;19965;-82
2022/08/11 11:06:35;;;;;;;13.10;3.53;;;;;;;32.47;30.14;101804.38;5059404;28;20036;-81
2022/08/11 11:09:13;;;;;;;9.50;3.72;;;;;;;32.01;31.14;101796.41;5059090;28;20025;-82
2022/08/11 11:17:54;;;;;;;11.13;3.92;;;;;;;32.26;30.46;101803.03;5077618;28;20048;-83
2022/08/11 11:20:25;;;;;;;14.38;3.88;;;;;;;32.13;30.96;101795.59;5075509;28;20021;-82
2022/08/11 11:22:55;;;;;;;15.20;4.60;;;;;;;32.24;32.08;101783.44;5055379;28;20041;-82
2022/08/11 11:25:36;;;;;;;7.32;3.15;;;;;;;32.52;31.69;101788.38;5055896;28;20029;-82
2022/08/11 11:28:26;;;;;;;7.72;3.60;;;;;;;32.17;32.19;101789.22;5073624;28;20068;-81
2022/08/11 11:31:02;;;;;;;7.57;3.72;;;;;;;33.14;30.73;101782.19;5077886;28;20048;-82
2022/08/11 11:33:39;;;;;;;12.13;3.42;;;;;;;32.35;31.21;101781.69;5079714;28;20033;-82
2022/08/11 11:36:16;;;;;;;15.68;3.50;;;;;;;32.35;31.11;101776.91;5076519;28;20384;-80
2022/08/11 11:38:42;;;;;;;9.80;3.40;;;;;;;31.78;31.80;101770.81;5081614;28;20462;-81
2022/08/11 11:41:26;;;;;;;8.57;3.30;;;;;;;32.19;30.42;101772.81;5082274;28;20062;-82
2022/08/11 11:43:56;;;;;;;9.63;3.40;;;;;;;32.03;30.42;101776.31;5082828;28;20058;-82
2022/08/11 11:46:28;;;;;;;13.15;4.10;;;;;;;31.74;30.30;101772.41;5083486;28;20052;-82
2022/08/11 11:48:55;;;;;;;8.15;2.97;;;;;;;31.96;29.85;101782.09;5083324;28;20058;-82
2022/08/11 11:51:26;;;;;;;10.02;3.17;;;;;;;31.67;30.08;101775.34;5083185;28;20039;-80
2022/08/11 11:53:52;;;;;;;8.95;3.47;;;;;;;31.39;31.06;101761.78;5081439;28;20042;-81
2022/08/11 11:56:22;;;;;;;8.85;3.70;;;;;;;31.19;30.06;101762.03;5065491;28;20395;-81
2022/08/11 12:01:34;;;;;;;8.57;3.67;;;;;;;31.73;31.05;101765.00;5083161;28;20040;-81
2022/08/11 12:04:00;;;;;;;16.83;3.92;;;;;;;31.69;30.00;101759.81;5049321;28;20043;-82
2022/08/11 12:06:26;;;;;;;10.57;3.30;;;;;;;31.79;31.02;101764.06;5082064;28;20032;-82
2022/08/11 12:08:56;;;;;;;3.53;3.00;;;;;;;31.75;29.64;101754.34;5082661;28;20471;-81
2022/08/11 12:14:10;;;;;;;10.05;3.45;;;;;;;31.36;29.41;101748.97;5101285;28;20083;-81
2022/08/11 12:16:38;;;;;;;12.18;4.10;;;;;;;31.54;30.10;101753.75;5065494;28;20032;-81
2022/08/11 12:19:13;;;;;;;6.05;3.63;;;;;;;31.41;29.80;101743.44;5082643;28;20052;-81
2022/08/11 12:27:20;;;;;;;6.28;3.40;;;;;;;31.48;29.07;101727.25;5081750;28;20036;-81
2022/08/11 12:30:05;;;;;;;7.88;3.35;;;;;;;31.47;30.04;101725.50;5082222;28;20059;-81
2022/08/11 12:32:34;;;;;;;5.43;3.03;;;;;;;31.73;30.94;101719.69;5065936;28;20169;-82
2022/08/11 12:35:00;;;;;;;9.43;3.17;;;;;;;31.82;31.48;101721.94;5080633;28;20383;-82
2022/08/11 12:37:38;;;;;;;12.15;3.40;;;;;;;31.78;30.98;101715.06;5101581;28;20476;-81
2022/08/11 12:45:45;;;;;;;25.05;3.95;;;;;;;31.43;29.03;101707.25;5077612;28;20040;-82
2022/08/11 12:54:00;;;;;;;12.68;3.13;;;;;;;31.73;29.81;101706.41;5080439;28;20035;-81
2022/08/11 13:04:58;;;;;;;10.48;3.50;;;;;;;31.58;27.77;101687.06;5045798;28;20099;-81
2022/08/11 13:07:26;;;;;;;7.35;3.60;;;;;;;31.41;28.53;101688.81;5077226;28;20054;-84
2022/08/11 13:09:55;;;;;;;9.20;3.25;;;;;;;31.77;29.79;101693.50;5060455;28;20040;-81
2022/08/11 13:15:11;;;;;;;5.72;3.10;;;;;;;31.45;29.21;101692.88;5080066;28;20388;-81
2022/08/11 13:17:38;;;;;;;11.27;3.10;;;;;;;31.43;28.74;101678.09;5078764;28;20074;-81
2022/08/11 13:20:07;;;;;;;14.15;3.35;;;;;;;31.74;28.53;101674.16;5062138;28;20115;-83
2022/08/11 13:22:36;;;;;;;6.70;3.17;;;;;;;31.39;27.90;101671.22;5064828;28;20081;-83
2022/08/11 13:25:03;;;;;;;15.25;3.20;;;;;;;31.51;27.96;101663.59;5077587;28;20064;-81
2022/08/11 13:27:29;;;;;;;10.73;3.40;;;;;;;31.45;28.22;101664.56;5059975;28;20036;-82
2022/08/11 13:31:09;;;;;;;8.13;3.58;;;;;;;31.40;28.69;101658.75;5059397;28;20032;-80
2022/08/11 13:32:43;;;;;;;14.60;3.25;;;;;;;31.52;27.44;101665.38;5064160;28;20040;-81
2022/08/11 13:35:13;;;;;;;7.32;3.45;;;;;;;31.60;28.26;101650.84;5061194;28;20135;-81
2022/08/11 13:37:41;;;;;;;12.25;3.97;;;;;;;31.50;27.94;101657.09;5075640;28;20036;-82
2022/08/11 13:40:11;;;;;;;5.35;3.35;;;;;;;31.35;29.49;101653.81;5061380;28;20056;-82
2022/08/11 13:42:38;;;;;;;9.10;3.72;;;;;;;31.38;28.14;101642.00;5058964;28;20044;-82
2022/08/11 13:45:06;;;;;;;10.48;3.40;;;;;;;31.17;28.65;101643.41;5074936;28;20103;-81
2022/08/11 13:47:33;;;;;;;9.85;3.75;;;;;;;31.12;27.53;101649.81;5074821;28;20104;-81
2022/08/11 13:50:00;;;;;;;16.48;3.92;;;;;;;31.10;28.28;101645.50;5046724;28;20033;-82
2022/08/11 13:52:27;;;;;;;8.77;3.70;;;;;;;31.33;29.76;101642.72;5061917;28;20068;-81
2022/08/11 13:54:54;;;;;;;8.30;4.07;;;;;;;31.24;30.85;101643.31;5065899;28;20395;-82
2022/08/11 13:57:21;;;;;;;6.85;3.92;;;;;;;31.41;29.35;101638.72;5077004;28;20408;-81
2022/08/11 13:59:53;;;;;;;13.30;3.70;;;;;;;31.44;29.98;101645.88;5058019;28;20032;-81
2022/08/11 14:02:22;;;;;;;;;;;;;;;31.26;29.69;101641.13;5075655;28;20494;-81
2022/08/11 14:04:54;;;;;;;21.15;3.80;;;;;;;31.41;29.99;101635.03;5074993;28;19916;-81
2022/08/11 14:07:21;;;;;;;;;;;;;;;31.38;28.36;101636.34;5076488;28;20039;-82
2022/08/11 14:09:52;;;;;;;9.43;3.75;;;;;;;31.27;29.41;101625.84;5050849;28;20333;-82
2022/08/11 14:15:19;;;;;;;14.00;4.05;;;;;;;31.09;29.18;101618.28;5075923;28;20040;-80
2022/08/11 14:17:56;;;;;;;6.28;3.55;;;;;;;31.08;30.06;101622.25;5059102;28;20065;-82
2022/08/11 14:20:23;;;;;;;7.88;3.63;;;;;;;31.09;28.96;101621.13;5075532;28;20502;-82
2022/08/11 14:22:50;;;;;;;9.38;3.92;;;;;;;31.06;29.58;101627.28;5069406;28;20515;-82
2022/08/11 14:25:16;;;;;;;9.80;3.78;;;;;;;30.99;28.49;101623.66;5051484;28;20036;-81
2022/08/11 14:27:48;;;;;;;12.20;3.58;;;;;;;31.01;28.58;101612.97;5067241;28;20097;-81
2022/08/11 14:30:54;;;;;;;;;;;;;;;30.99;28.55;101618.88;5059908;28;20123;-82
2022/08/11 14:33:00;;;;;;;10.63;3.50;;;;;;;30.98;29.81;101611.50;5074809;28;19916;-82
2022/08/11 14:35:27;;;;;;;9.18;3.80;;;;;;;31.03;30.81;101622.09;5055028;28;20090;-82
2022/08/11 14:37:56;;;;;;;11.07;3.70;;;;;;;31.03;30.63;101622.09;5077102;28;20041;-81
2022/08/11 14:48:41;;;;;;;5.20;3.05;;;;;;;30.96;29.79;101606.09;5062927;28;20032;-80
2022/08/11 14:51:07;;;;;;;8.73;2.83;;;;;;;30.98;29.36;101602.16;5060795;28;20063;-81
2022/08/11 14:53:33;;;;;;;6.28;2.90;;;;;;;31.13;29.15;101594.09;5050764;28;20044;-80
2022/08/11 14:58:44;;;;;;;12.90;3.20;;;;;;;30.98;29.33;101599.34;5077248;28;20067;-81
2022/08/11 15:03:56;;;;;;;7.50;3.47;;;;;;;30.93;29.17;101605.66;5064229;28;20032;-81
2022/08/11 15:06:24;;;;;;;5.68;2.70;;;;;;;30.77;27.23;101593.91;5061855;28;20065;-82
2022/08/11 15:08:56;;;;;;;7.03;2.88;;;;;;;30.71;27.60;101585.50;5095386;28;20046;-80
2022/08/11 15:14:10;;;;;;;5.20;2.65;;;;;;;30.94;27.13;101577.16;5096061;28;20028;-80
2022/08/11 15:19:26;;;;;;;5.60;2.75;;;;;;;30.95;27.38;101581.72;5077026;28;20024;-81
2022/08/11 15:24:37;;;;;;;6.15;2.58;;;;;;;30.97;28.47;101567.34;5090136;28;20387;-81
2022/08/11 15:38:21;;;;;;;9.02;2.58;;;;;;;30.77;27.26;101559.13;5095667;28;20062;-81
2022/08/11 15:46:41;;;;;;;9.00;2.13;;;;;;;30.72;28.10;101551.34;5085354;28;20032;-81
2022/08/11 15:49:13;;;;;;;4.13;1.85;;;;;;;30.84;27.74;101553.38;5093316;28;20024;-81
2022/08/11 15:51:41;;;;;;;9.38;2.70;;;;;;;30.86;27.78;101543.53;5078198;28;20043;-80
2022/08/11 15:54:12;;;;;;;6.13;2.50;;;;;;;30.81;27.80;101549.03;5077428;28;20455;-82
2022/08/11 15:56:43;;;;;;;5.97;2.22;;;;;;;30.67;27.01;101545.56;5078219;28;20433;-81
2022/08/11 16:04:48;;;;;;;5.82;2.13;;;;;;;30.73;28.53;101538.06;5083605;28;20050;-83
2022/08/11 16:07:18;;;;;;;4.70;2.28;;;;;;;30.73;28.44;101543.72;5077347;28;20123;-81
2022/08/11 16:09:54;;;;;;;7.53;2.25;;;;;;;30.67;27.90;101530.56;5095590;28;20027;-81
2022/08/11 16:12:25;;;;;;;11.73;2.58;;;;;;;30.55;28.15;101533.31;5059004;28;20027;-82
2022/08/11 16:17:43;;;;;;;4.95;2.33;;;;;;;30.69;26.70;101534.00;5079574;28;20056;-80
2022/08/11 16:20:10;;;;;;;8.77;2.30;;;;;;;30.56;29.39;101526.56;5073217;28;20041;-80
2022/08/11 16:22:39;;;;;;;6.45;2.50;;;;;;;30.60;28.62;101522.19;5073989;28;20040;-79
2022/08/11 16:25:08;;;;;;;12.43;2.13;;;;;;;30.58;28.53;101519.59;5076904;28;20028;-80
2022/08/11 16:27:39;;;;;;;2.72;2.30;;;;;;;30.62;27.67;101519.97;5078848;28;20032;-80
2022/08/11 16:30:05;;;;;;;18.13;2.40;;;;;;;30.51;28.71;101512.28;5077932;28;20059;-80